sensor_id;sensor_type;location;lat;lon;timestamp;temperature;humidity
29341;DHT22;16337;59.536;13.468;2022-09-28T00:02:04;10.20;99.90
29341;DHT22;16337;59.536;13.468;2022-09-28T00:04:30;10.30;99.90
29341;DHT22;16337;59.536;13.468;2022-09-28T00:06:57;10.30;99.90
29341;DHT22;16337;59.536;13.468;2022-09-28T00:09:23;10.30;99.90
29341;DHT22;16337;59.536;13.468;2022-09-28T00:11:49;10.20;99.90
29341;DHT22;16337;59.536;13.468;2022-09-28T00:14:14;10.20;99.90
29341;DHT22;16337;59.536;13.468;2022-09-28T00:16:41;10.20;99.90
29341;DHT22;16337;59.536;13.468;2022-09-28T00:19:08;10.30;99.90
29341;DHT22;16337;59.536;13.468;2022-09-28T00:21:36;10.40;99.90
29341;DHT22;16337;59.536;13.468;2022-09-28T00:24:04;10.40;99.90
29341;DHT22;16337;59.536;13.468;2022-09-28T00:26:53;10.50;99.90
29341;DHT22;16337;59.536;13.468;2022-09-28T00:29:30;10.40;99.90
29341;DHT22;16337;59.536;13.468;2022-09-28T00:31:59;10.40;99.90
29341;DHT22;16337;59.536;13.468;2022-09-28T00:34:27;10.40;99.90
29341;DHT22;16337;59.536;13.468;2022-09-28T00:36:55;10.40;99.90
29341;DHT22;16337;59.536;13.468;2022-09-28T00:39:21;10.40;99.90
29341;DHT22;16337;59.536;13.468;2022-09-28T00:41:46;10.50;99.90
29341;DHT22;16337;59.536;13.468;2022-09-28T00:46:53;10.50;99.90
29341;DHT22;16337;59.536;13.468;2022-09-28T00:49:31;10.50;99.90
29341;DHT22;16337;59.536;13.468;2022-09-28T00:51:58;10.50;99.90
29341;DHT22;16337;59.536;13.468;2022-09-28T00:54:24;10.60;99.90
29341;DHT22;16337;59.536;13.468;2022-09-28T00:56:50;10.60;99.90
29341;DHT22;16337;59.536;13.468;2022-09-28T00:59:16;10.60;99.90
29341;DHT22;16337;59.536;13.468;2022-09-28T01:01:42;10.60;99.90
29341;DHT22;16337;59.536;13.468;2022-09-28T01:04:08;10.70;99.90
29341;DHT22;16337;59.536;13.468;2022-09-28T01:06:35;10.60;99.90
29341;DHT22;16337;59.536;13.468;2022-09-28T01:09:05;10.70;99.90
29341;DHT22;16337;59.536;13.468;2022-09-28T01:11:34;10.80;99.90
29341;DHT22;16337;59.536;13.468;2022-09-28T01:14:01;10.80;99.90
29341;DHT22;16337;59.536;13.468;2022-09-28T01:16:33;10.80;99.90
29341;DHT22;16337;59.536;13.468;2022-09-28T01:22:08;10.80;99.90
29341;DHT22;16337;59.536;13.468;2022-09-28T01:24:42;10.80;99.90
29341;DHT22;16337;59.536;13.468;2022-09-28T01:30:06;10.90;99.90
29341;DHT22;16337;59.536;13.468;2022-09-28T01:36:28;10.90;99.90
29341;DHT22;16337;59.536;13.468;2022-09-28T01:38:55;10.90;99.90
29341;DHT22;16337;59.536;13.468;2022-09-28T01:41:25;10.90;99.90
29341;DHT22;16337;59.536;13.468;2022-09-28T01:43:55;10.90;99.90
29341;DHT22;16337;59.536;13.468;2022-09-28T01:46:26;10.90;99.90
29341;DHT22;16337;59.536;13.468;2022-09-28T01:48:58;10.90;99.90
29341;DHT22;16337;59.536;13.468;2022-09-28T01:54:12;11.00;99.90
29341;DHT22;16337;59.536;13.468;2022-09-28T01:56:46;11.00;99.90
29341;DHT22;16337;59.536;13.468;2022-09-28T01:59:21;11.00;99.90
29341;DHT22;16337;59.536;13.468;2022-09-28T02:01:55;11.00;99.90
29341;DHT22;16337;59.536;13.468;2022-09-28T02:04:36;11.00;99.90
29341;DHT22;16337;59.536;13.468;2022-09-28T02:07:09;11.10;99.90
29341;DHT22;16337;59.536;13.468;2022-09-28T02:09:53;11.00;99.90
29341;DHT22;16337;59.536;13.468;2022-09-28T02:14:51;11.00;99.90
29341;DHT22;16337;59.536;13.468;2022-09-28T02:17:19;11.00;99.90
29341;DHT22;16337;59.536;13.468;2022-09-28T02:19:45;11.00;99.90
29341;DHT22;16337;59.536;13.468;2022-09-28T02:24:54;11.00;99.90
29341;DHT22;16337;59.536;13.468;2022-09-28T02:29:56;11.00;99.90
29341;DHT22;16337;59.536;13.468;2022-09-28T02:32:23;11.00;99.90
29341;DHT22;16337;59.536;13.468;2022-09-28T02:34:50;11.00;99.90
29341;DHT22;16337;59.536;13.468;2022-09-28T02:37:15;11.00;99.90
29341;DHT22;16337;59.536;13.468;2022-09-28T02:39:41;11.00;99.90
29341;DHT22;16337;59.536;13.468;2022-09-28T02:42:19;11.00;99.90
29341;DHT22;16337;59.536;13.468;2022-09-28T02:45:13;11.00;99.90
29341;DHT22;16337;59.536;13.468;2022-09-28T02:56:36;11.00;99.90
29341;DHT22;16337;59.536;13.468;2022-09-28T03:02:22;10.90;99.90
29341;DHT22;16337;59.536;13.468;2022-09-28T03:08:03;10.90;99.90
29341;DHT22;16337;59.536;13.468;2022-09-28T03:13:03;10.80;99.90
29341;DHT22;16337;59.536;13.468;2022-09-28T03:15:33;10.80;99.90
29341;DHT22;16337;59.536;13.468;2022-09-28T03:17:59;10.80;99.90
29341;DHT22;16337;59.536;13.468;2022-09-28T03:20:26;10.70;99.90
29341;DHT22;16337;59.536;13.468;2022-09-28T03:22:52;10.70;99.90
29341;DHT22;16337;59.536;13.468;2022-09-28T03:25:17;10.70;99.90
29341;DHT22;16337;59.536;13.468;2022-09-28T03:27:43;10.60;99.90
29341;DHT22;16337;59.536;13.468;2022-09-28T03:30:10;10.60;99.90
29341;DHT22;16337;59.536;13.468;2022-09-28T03:32:36;10.60;99.90
29341;DHT22;16337;59.536;13.468;2022-09-28T03:35:02;10.50;99.90
29341;DHT22;16337;59.536;13.468;2022-09-28T03:37:27;10.50;99.90
29341;DHT22;16337;59.536;13.468;2022-09-28T03:39:53;10.50;99.90
29341;DHT22;16337;59.536;13.468;2022-09-28T03:42:19;10.50;99.90
29341;DHT22;16337;59.536;13.468;2022-09-28T03:44:44;10.60;99.90
29341;DHT22;16337;59.536;13.468;2022-09-28T03:47:10;10.70;99.90
29341;DHT22;16337;59.536;13.468;2022-09-28T03:49:36;10.80;99.90
29341;DHT22;16337;59.536;13.468;2022-09-28T03:52:02;10.80;99.90
29341;DHT22;16337;59.536;13.468;2022-09-28T03:54:28;10.90;99.90
29341;DHT22;16337;59.536;13.468;2022-09-28T03:56:54;10.90;99.90
29341;DHT22;16337;59.536;13.468;2022-09-28T03:59:19;10.90;99.90
29341;DHT22;16337;59.536;13.468;2022-09-28T04:01:48;11.00;99.90
29341;DHT22;16337;59.536;13.468;2022-09-28T04:04:14;11.00;99.90
29341;DHT22;16337;59.536;13.468;2022-09-28T04:06:40;11.00;99.90
29341;DHT22;16337;59.536;13.468;2022-09-28T04:09:06;11.10;99.90
29341;DHT22;16337;59.536;13.468;2022-09-28T04:11:32;11.10;99.90
29341;DHT22;16337;59.536;13.468;2022-09-28T04:13:57;11.10;99.90
29341;DHT22;16337;59.536;13.468;2022-09-28T04:16:23;11.00;99.90
29341;DHT22;16337;59.536;13.468;2022-09-28T04:18:49;11.00;99.90
29341;DHT22;16337;59.536;13.468;2022-09-28T04:21:17;11.00;99.90
29341;DHT22;16337;59.536;13.468;2022-09-28T04:23:44;11.00;99.90
29341;DHT22;16337;59.536;13.468;2022-09-28T04:26:21;11.00;99.90
29341;DHT22;16337;59.536;13.468;2022-09-28T04:28:48;11.00;99.90
29341;DHT22;16337;59.536;13.468;2022-09-28T04:31:46;11.00;99.90
29341;DHT22;16337;59.536;13.468;2022-09-28T04:34:13;11.00;99.90
29341;DHT22;16337;59.536;13.468;2022-09-28T04:36:42;11.10;99.90
29341;DHT22;16337;59.536;13.468;2022-09-28T04:39:10;11.00;99.90
29341;DHT22;16337;59.536;13.468;2022-09-28T04:41:35;11.10;99.90
29341;DHT22;16337;59.536;13.468;2022-09-28T04:44:01;11.10;99.90
29341;DHT22;16337;59.536;13.468;2022-09-28T04:46:27;11.10;99.90
29341;DHT22;16337;59.536;13.468;2022-09-28T04:48:53;11.10;99.90
29341;DHT22;16337;59.536;13.468;2022-09-28T04:51:18;11.10;99.90
29341;DHT22;16337;59.536;13.468;2022-09-28T04:53:44;11.10;99.90
29341;DHT22;16337;59.536;13.468;2022-09-28T04:56:12;11.10;99.90
29341;DHT22;16337;59.536;13.468;2022-09-28T04:58:38;11.10;99.90
29341;DHT22;16337;59.536;13.468;2022-09-28T05:01:07;11.10;99.90
29341;DHT22;16337;59.536;13.468;2022-09-28T05:03:33;11.20;99.90
29341;DHT22;16337;59.536;13.468;2022-09-28T05:05:59;11.20;99.90
29341;DHT22;16337;59.536;13.468;2022-09-28T05:08:26;11.20;99.90
29341;DHT22;16337;59.536;13.468;2022-09-28T05:11:12;11.20;99.90
29341;DHT22;16337;59.536;13.468;2022-09-28T05:13:41;11.20;99.90
29341;DHT22;16337;59.536;13.468;2022-09-28T05:16:08;11.30;99.90
29341;DHT22;16337;59.536;13.468;2022-09-28T05:18:34;11.30;99.90
29341;DHT22;16337;59.536;13.468;2022-09-28T05:21:00;11.40;99.90
29341;DHT22;16337;59.536;13.468;2022-09-28T05:23:26;11.40;99.90
29341;DHT22;16337;59.536;13.468;2022-09-28T05:25:52;11.40;99.90
29341;DHT22;16337;59.536;13.468;2022-09-28T05:28:25;11.40;99.90
29341;DHT22;16337;59.536;13.468;2022-09-28T05:30:51;11.40;99.90
29341;DHT22;16337;59.536;13.468;2022-09-28T05:33:17;11.50;99.90
29341;DHT22;16337;59.536;13.468;2022-09-28T05:35:42;11.60;99.90
29341;DHT22;16337;59.536;13.468;2022-09-28T05:38:08;11.60;99.90
29341;DHT22;16337;59.536;13.468;2022-09-28T05:40:34;11.60;99.90
29341;DHT22;16337;59.536;13.468;2022-09-28T05:43:00;11.60;99.90
29341;DHT22;16337;59.536;13.468;2022-09-28T05:45:27;11.60;99.90
29341;DHT22;16337;59.536;13.468;2022-09-28T05:47:53;11.70;99.90
29341;DHT22;16337;59.536;13.468;2022-09-28T05:50:19;11.70;99.90
29341;DHT22;16337;59.536;13.468;2022-09-28T05:52:45;11.70;99.90
29341;DHT22;16337;59.536;13.468;2022-09-28T05:55:11;11.70;99.90
29341;DHT22;16337;59.536;13.468;2022-09-28T05:57:37;11.70;99.90
29341;DHT22;16337;59.536;13.468;2022-09-28T06:00:06;11.70;99.90
29341;DHT22;16337;59.536;13.468;2022-09-28T06:02:34;11.70;99.90
29341;DHT22;16337;59.536;13.468;2022-09-28T06:04:59;11.70;99.90
29341;DHT22;16337;59.536;13.468;2022-09-28T06:07:25;11.80;99.90
29341;DHT22;16337;59.536;13.468;2022-09-28T06:09:51;11.80;99.90
29341;DHT22;16337;59.536;13.468;2022-09-28T06:12:17;11.90;99.90
29341;DHT22;16337;59.536;13.468;2022-09-28T06:14:42;11.90;99.90
29341;DHT22;16337;59.536;13.468;2022-09-28T06:17:09;11.90;99.90
29341;DHT22;16337;59.536;13.468;2022-09-28T06:19:34;11.80;99.90
29341;DHT22;16337;59.536;13.468;2022-09-28T06:22:00;11.80;99.90
29341;DHT22;16337;59.536;13.468;2022-09-28T06:24:26;11.90;99.90
29341;DHT22;16337;59.536;13.468;2022-09-28T06:26:51;11.90;99.90
29341;DHT22;16337;59.536;13.468;2022-09-28T06:29:17;11.90;99.90
29341;DHT22;16337;59.536;13.468;2022-09-28T06:31:44;11.90;99.90
29341;DHT22;16337;59.536;13.468;2022-09-28T06:34:10;11.90;99.90
29341;DHT22;16337;59.536;13.468;2022-09-28T06:36:37;11.90;99.90
29341;DHT22;16337;59.536;13.468;2022-09-28T06:39:03;11.90;99.90
29341;DHT22;16337;59.536;13.468;2022-09-28T06:41:29;11.90;99.90
29341;DHT22;16337;59.536;13.468;2022-09-28T06:43:54;11.90;99.90
29341;DHT22;16337;59.536;13.468;2022-09-28T06:46:20;11.90;99.90
29341;DHT22;16337;59.536;13.468;2022-09-28T06:48:46;11.90;99.90
29341;DHT22;16337;59.536;13.468;2022-09-28T06:51:12;12.00;99.90
29341;DHT22;16337;59.536;13.468;2022-09-28T06:53:38;12.00;99.90
29341;DHT22;16337;59.536;13.468;2022-09-28T06:56:04;12.10;99.90
29341;DHT22;16337;59.536;13.468;2022-09-28T06:58:31;12.10;99.90
29341;DHT22;16337;59.536;13.468;2022-09-28T07:00:57;12.10;99.90
29341;DHT22;16337;59.536;13.468;2022-09-28T07:03:23;12.20;99.90
29341;DHT22;16337;59.536;13.468;2022-09-28T07:05:52;12.20;99.90
29341;DHT22;16337;59.536;13.468;2022-09-28T07:08:20;12.20;99.90
29341;DHT22;16337;59.536;13.468;2022-09-28T07:10:47;12.20;99.90
29341;DHT22;16337;59.536;13.468;2022-09-28T07:13:15;12.30;99.90
29341;DHT22;16337;59.536;13.468;2022-09-28T07:15:42;12.30;99.90
29341;DHT22;16337;59.536;13.468;2022-09-28T07:18:09;12.10;99.90
29341;DHT22;16337;59.536;13.468;2022-09-28T07:20:35;12.10;99.90
29341;DHT22;16337;59.536;13.468;2022-09-28T07:23:04;12.10;99.90
29341;DHT22;16337;59.536;13.468;2022-09-28T07:25:30;12.10;99.90
29341;DHT22;16337;59.536;13.468;2022-09-28T07:27:58;12.10;99.90
29341;DHT22;16337;59.536;13.468;2022-09-28T07:30:29;12.20;99.90
29341;DHT22;16337;59.536;13.468;2022-09-28T07:32:58;12.20;99.90
29341;DHT22;16337;59.536;13.468;2022-09-28T07:35:24;12.30;99.90
29341;DHT22;16337;59.536;13.468;2022-09-28T07:38:00;12.40;99.90
29341;DHT22;16337;59.536;13.468;2022-09-28T07:40:28;12.50;99.90
29341;DHT22;16337;59.536;13.468;2022-09-28T07:43:12;12.50;99.90
29341;DHT22;16337;59.536;13.468;2022-09-28T07:45:39;12.50;99.90
29341;DHT22;16337;59.536;13.468;2022-09-28T07:48:04;12.40;99.90
29341;DHT22;16337;59.536;13.468;2022-09-28T07:50:30;12.50;99.90
29341;DHT22;16337;59.536;13.468;2022-09-28T07:52:56;12.50;99.90
29341;DHT22;16337;59.536;13.468;2022-09-28T07:55:23;12.60;99.90
29341;DHT22;16337;59.536;13.468;2022-09-28T07:57:55;12.60;99.90
29341;DHT22;16337;59.536;13.468;2022-09-28T08:00:26;12.70;99.90
29341;DHT22;16337;59.536;13.468;2022-09-28T08:02:51;12.80;99.90
29341;DHT22;16337;59.536;13.468;2022-09-28T08:05:17;12.80;99.90
29341;DHT22;16337;59.536;13.468;2022-09-28T08:07:43;12.80;99.90
29341;DHT22;16337;59.536;13.468;2022-09-28T08:10:10;12.90;99.90
29341;DHT22;16337;59.536;13.468;2022-09-28T08:12:36;12.90;99.90
29341;DHT22;16337;59.536;13.468;2022-09-28T08:15:06;12.90;99.90
29341;DHT22;16337;59.536;13.468;2022-09-28T08:17:35;13.00;99.90
29341;DHT22;16337;59.536;13.468;2022-09-28T08:20:00;13.00;99.90
29341;DHT22;16337;59.536;13.468;2022-09-28T08:22:44;12.90;99.90
29341;DHT22;16337;59.536;13.468;2022-09-28T08:25:10;13.00;99.90
29341;DHT22;16337;59.536;13.468;2022-09-28T08:27:35;13.00;99.90
29341;DHT22;16337;59.536;13.468;2022-09-28T08:30:01;13.10;99.90
29341;DHT22;16337;59.536;13.468;2022-09-28T08:32:27;13.20;99.90
29341;DHT22;16337;59.536;13.468;2022-09-28T08:34:54;13.20;99.90
29341;DHT22;16337;59.536;13.468;2022-09-28T08:37:20;13.20;99.90
29341;DHT22;16337;59.536;13.468;2022-09-28T08:39:46;13.10;99.90
29341;DHT22;16337;59.536;13.468;2022-09-28T08:42:34;13.20;99.90
29341;DHT22;16337;59.536;13.468;2022-09-28T08:45:26;13.20;99.90
29341;DHT22;16337;59.536;13.468;2022-09-28T08:56:35;13.40;99.90
29341;DHT22;16337;59.536;13.468;2022-09-28T08:59:11;13.50;99.90
29341;DHT22;16337;59.536;13.468;2022-09-28T09:01:53;13.50;99.90
29341;DHT22;16337;59.536;13.468;2022-09-28T09:04:20;13.40;99.90
29341;DHT22;16337;59.536;13.468;2022-09-28T09:18:16;13.90;99.90
29341;DHT22;16337;59.536;13.468;2022-09-28T09:20:50;14.00;99.90
29341;DHT22;16337;59.536;13.468;2022-09-28T09:23:53;14.10;99.90
29341;DHT22;16337;59.536;13.468;2022-09-28T09:26:35;14.20;99.90
29341;DHT22;16337;59.536;13.468;2022-09-28T09:37:53;14.50;99.90
29341;DHT22;16337;59.536;13.468;2022-09-28T09:46:17;14.60;99.90
29341;DHT22;16337;59.536;13.468;2022-09-28T09:49:23;14.50;99.90
29341;DHT22;16337;59.536;13.468;2022-09-28T09:57:41;14.70;99.90
29341;DHT22;16337;59.536;13.468;2022-09-28T10:00:12;14.90;99.90
29341;DHT22;16337;59.536;13.468;2022-09-28T10:02:39;15.00;99.90
29341;DHT22;16337;59.536;13.468;2022-09-28T10:10:17;14.80;99.90
29341;DHT22;16337;59.536;13.468;2022-09-28T10:12:44;15.00;99.90
29341;DHT22;16337;59.536;13.468;2022-09-28T10:15:15;15.00;99.90
29341;DHT22;16337;59.536;13.468;2022-09-28T10:17:43;15.10;99.90
29341;DHT22;16337;59.536;13.468;2022-09-28T10:20:14;15.00;99.90
29341;DHT22;16337;59.536;13.468;2022-09-28T10:22:41;15.00;99.90
29341;DHT22;16337;59.536;13.468;2022-09-28T10:25:07;15.00;99.90
29341;DHT22;16337;59.536;13.468;2022-09-28T10:27:37;14.90;99.90
29341;DHT22;16337;59.536;13.468;2022-09-28T10:30:18;14.80;99.90
29341;DHT22;16337;59.536;13.468;2022-09-28T10:32:46;14.90;99.90
29341;DHT22;16337;59.536;13.468;2022-09-28T10:38:04;15.00;99.90
29341;DHT22;16337;59.536;13.468;2022-09-28T10:40:53;14.90;99.90
29341;DHT22;16337;59.536;13.468;2022-09-28T10:43:24;15.00;99.90
29341;DHT22;16337;59.536;13.468;2022-09-28T10:46:13;15.20;99.90
29341;DHT22;16337;59.536;13.468;2022-09-28T10:48:49;15.30;99.90
29341;DHT22;16337;59.536;13.468;2022-09-28T10:51:16;15.40;99.90
29341;DHT22;16337;59.536;13.468;2022-09-28T10:54:00;15.30;99.90
29341;DHT22;16337;59.536;13.468;2022-09-28T10:56:28;15.20;99.90
29341;DHT22;16337;59.536;13.468;2022-09-28T10:58:59;15.00;99.90
29341;DHT22;16337;59.536;13.468;2022-09-28T11:01:29;15.00;99.90
29341;DHT22;16337;59.536;13.468;2022-09-28T11:04:02;15.10;99.90
29341;DHT22;16337;59.536;13.468;2022-09-28T11:06:36;15.10;99.90
29341;DHT22;16337;59.536;13.468;2022-09-28T11:09:06;15.20;99.90
29341;DHT22;16337;59.536;13.468;2022-09-28T11:11:41;15.10;99.90
29341;DHT22;16337;59.536;13.468;2022-09-28T11:19:49;14.60;99.90
29341;DHT22;16337;59.536;13.468;2022-09-28T11:22:24;14.60;99.90
29341;DHT22;16337;59.536;13.468;2022-09-28T11:24:50;14.80;99.90
29341;DHT22;16337;59.536;13.468;2022-09-28T11:27:25;14.90;99.90
29341;DHT22;16337;59.536;13.468;2022-09-28T11:29:57;14.80;99.90
29341;DHT22;16337;59.536;13.468;2022-09-28T11:32:29;14.80;99.90
29341;DHT22;16337;59.536;13.468;2022-09-28T11:34:58;15.00;99.90
29341;DHT22;16337;59.536;13.468;2022-09-28T11:45:47;14.80;99.90
29341;DHT22;16337;59.536;13.468;2022-09-28T11:48:27;14.60;99.90
29341;DHT22;16337;59.536;13.468;2022-09-28T11:51:03;14.50;99.90
29341;DHT22;16337;59.536;13.468;2022-09-28T11:53:46;14.50;99.90
29341;DHT22;16337;59.536;13.468;2022-09-28T11:59:13;14.50;99.90
29341;DHT22;16337;59.536;13.468;2022-09-28T12:07:28;14.50;99.90
29341;DHT22;16337;59.536;13.468;2022-09-28T12:12:59;14.60;99.90
29341;DHT22;16337;59.536;13.468;2022-09-28T12:15:52;14.50;99.90
29341;DHT22;16337;59.536;13.468;2022-09-28T12:18:29;14.50;99.90
29341;DHT22;16337;59.536;13.468;2022-09-28T12:23:33;14.40;99.90
29341;DHT22;16337;59.536;13.468;2022-09-28T12:26:07;14.50;99.90
29341;DHT22;16337;59.536;13.468;2022-09-28T12:28:48;14.60;99.90
29341;DHT22;16337;59.536;13.468;2022-09-28T12:31:55;14.80;99.90
29341;DHT22;16337;59.536;13.468;2022-09-28T12:34:13;14.80;99.90
29341;DHT22;16337;59.536;13.468;2022-09-28T12:37:06;14.70;99.90
29341;DHT22;16337;59.536;13.468;2022-09-28T12:39:53;14.70;99.90
29341;DHT22;16337;59.536;13.468;2022-09-28T12:58:26;14.60;99.90
29341;DHT22;16337;59.536;13.468;2022-09-28T13:01:24;14.70;99.90
29341;DHT22;16337;59.536;13.468;2022-09-28T13:09:22;14.80;99.90
29341;DHT22;16337;59.536;13.468;2022-09-28T13:12:21;14.90;99.90
29341;DHT22;16337;59.536;13.468;2022-09-28T13:15:12;15.00;99.90
29341;DHT22;16337;59.536;13.468;2022-09-28T13:20:49;14.90;99.90
29341;DHT22;16337;59.536;13.468;2022-09-28T13:23:24;14.90;99.90
29341;DHT22;16337;59.536;13.468;2022-09-28T13:28:22;15.00;99.90
29341;DHT22;16337;59.536;13.468;2022-09-28T13:30:51;15.00;99.90
29341;DHT22;16337;59.536;13.468;2022-09-28T13:33:37;15.00;99.90
29341;DHT22;16337;59.536;13.468;2022-09-28T13:38:49;15.00;99.90
29341;DHT22;16337;59.536;13.468;2022-09-28T13:46:53;14.80;99.90
29341;DHT22;16337;59.536;13.468;2022-09-28T13:52:49;14.60;99.90
29341;DHT22;16337;59.536;13.468;2022-09-28T14:00:29;14.00;99.90
29341;DHT22;16337;59.536;13.468;2022-09-28T14:09:05;13.80;99.90
29341;DHT22;16337;59.536;13.468;2022-09-28T14:16:37;13.50;99.90
29341;DHT22;16337;59.536;13.468;2022-09-28T14:24:49;13.30;99.90
29341;DHT22;16337;59.536;13.468;2022-09-28T14:32:37;13.20;99.90
29341;DHT22;16337;59.536;13.468;2022-09-28T14:35:16;13.30;99.90
29341;DHT22;16337;59.536;13.468;2022-09-28T14:37:47;13.30;99.90
29341;DHT22;16337;59.536;13.468;2022-09-28T14:40:59;13.40;99.90
29341;DHT22;16337;59.536;13.468;2022-09-28T14:53:50;13.70;99.90
29341;DHT22;16337;59.536;13.468;2022-09-28T14:56:17;13.60;99.90
29341;DHT22;16337;59.536;13.468;2022-09-28T14:58:45;13.60;99.90
29341;DHT22;16337;59.536;13.468;2022-09-28T15:01:17;13.50;99.90
29341;DHT22;16337;59.536;13.468;2022-09-28T15:03:47;13.40;99.90
29341;DHT22;16337;59.536;13.468;2022-09-28T15:06:14;13.20;99.90
29341;DHT22;16337;59.536;13.468;2022-09-28T15:08:45;13.10;99.90
29341;DHT22;16337;59.536;13.468;2022-09-28T15:11:15;13.10;99.90
29341;DHT22;16337;59.536;13.468;2022-09-28T15:13:42;12.90;99.90
29341;DHT22;16337;59.536;13.468;2022-09-28T15:16:09;12.80;99.90
29341;DHT22;16337;59.536;13.468;2022-09-28T15:21:14;12.60;99.90
29341;DHT22;16337;59.536;13.468;2022-09-28T15:23:43;12.50;99.90
29341;DHT22;16337;59.536;13.468;2022-09-28T15:26:29;12.40;99.90
29341;DHT22;16337;59.536;13.468;2022-09-28T15:28:55;12.30;99.90
29341;DHT22;16337;59.536;13.468;2022-09-28T15:31:23;12.30;99.90
29341;DHT22;16337;59.536;13.468;2022-09-28T15:33:51;12.20;99.90
29341;DHT22;16337;59.536;13.468;2022-09-28T15:36:40;12.20;99.90
29341;DHT22;16337;59.536;13.468;2022-09-28T15:39:13;12.20;99.90
29341;DHT22;16337;59.536;13.468;2022-09-28T15:41:44;12.30;99.90
29341;DHT22;16337;59.536;13.468;2022-09-28T15:46:41;12.20;99.90
29341;DHT22;16337;59.536;13.468;2022-09-28T15:52:44;12.10;99.90
29341;DHT22;16337;59.536;13.468;2022-09-28T15:57:42;12.00;99.90
29341;DHT22;16337;59.536;13.468;2022-09-28T16:00:22;12.00;99.90
29341;DHT22;16337;59.536;13.468;2022-09-28T16:14:17;11.90;99.90
29341;DHT22;16337;59.536;13.468;2022-09-28T16:16:47;11.80;99.90
29341;DHT22;16337;59.536;13.468;2022-09-28T16:19:37;11.80;99.90
29341;DHT22;16337;59.536;13.468;2022-09-28T16:22:11;11.70;99.90
29341;DHT22;16337;59.536;13.468;2022-09-28T16:24:56;11.70;99.90
29341;DHT22;16337;59.536;13.468;2022-09-28T16:27:42;11.60;99.90
29341;DHT22;16337;59.536;13.468;2022-09-28T16:30:14;11.60;99.90
29341;DHT22;16337;59.536;13.468;2022-09-28T16:33:03;11.60;99.90
29341;DHT22;16337;59.536;13.468;2022-09-28T16:38:15;11.50;99.90
29341;DHT22;16337;59.536;13.468;2022-09-28T16:40:46;11.40;99.90
29341;DHT22;16337;59.536;13.468;2022-09-28T16:43:27;11.40;99.90
29341;DHT22;16337;59.536;13.468;2022-09-28T16:45:59;11.30;99.90
29341;DHT22;16337;59.536;13.468;2022-09-28T16:48:31;11.10;99.90
29341;DHT22;16337;59.536;13.468;2022-09-28T16:50:58;11.00;99.90
29341;DHT22;16337;59.536;13.468;2022-09-28T16:53:24;10.90;99.90
29341;DHT22;16337;59.536;13.468;2022-09-28T16:56:09;10.90;99.90
29341;DHT22;16337;59.536;13.468;2022-09-28T16:58:35;10.80;99.90
29341;DHT22;16337;59.536;13.468;2022-09-28T17:01:02;10.80;99.90
29341;DHT22;16337;59.536;13.468;2022-09-28T17:03:28;10.80;99.90
29341;DHT22;16337;59.536;13.468;2022-09-28T17:05:54;10.70;99.90
29341;DHT22;16337;59.536;13.468;2022-09-28T17:08:22;10.70;99.90
29341;DHT22;16337;59.536;13.468;2022-09-28T17:10:57;10.60;99.90
29341;DHT22;16337;59.536;13.468;2022-09-28T17:13:26;10.60;99.90
29341;DHT22;16337;59.536;13.468;2022-09-28T17:15:56;10.70;99.90
29341;DHT22;16337;59.536;13.468;2022-09-28T17:18:22;10.70;99.90
29341;DHT22;16337;59.536;13.468;2022-09-28T17:20:50;10.70;99.90
29341;DHT22;16337;59.536;13.468;2022-09-28T17:23:17;10.70;99.90
29341;DHT22;16337;59.536;13.468;2022-09-28T17:25:43;10.70;99.90
29341;DHT22;16337;59.536;13.468;2022-09-28T17:28:21;10.60;99.90
29341;DHT22;16337;59.536;13.468;2022-09-28T17:30:48;10.60;99.90
29341;DHT22;16337;59.536;13.468;2022-09-28T17:33:15;10.60;99.90
29341;DHT22;16337;59.536;13.468;2022-09-28T17:35:41;10.60;99.90
29341;DHT22;16337;59.536;13.468;2022-09-28T17:38:13;10.50;99.90
29341;DHT22;16337;59.536;13.468;2022-09-28T17:40:40;10.60;99.90
29341;DHT22;16337;59.536;13.468;2022-09-28T17:43:06;10.60;99.90
29341;DHT22;16337;59.536;13.468;2022-09-28T17:45:33;10.60;99.90
29341;DHT22;16337;59.536;13.468;2022-09-28T17:48:09;10.60;99.90
29341;DHT22;16337;59.536;13.468;2022-09-28T17:50:36;10.60;99.90
29341;DHT22;16337;59.536;13.468;2022-09-28T17:53:02;10.60;99.90
29341;DHT22;16337;59.536;13.468;2022-09-28T17:55:32;10.50;99.90
29341;DHT22;16337;59.536;13.468;2022-09-28T17:57:59;10.50;99.90
29341;DHT22;16337;59.536;13.468;2022-09-28T18:00:26;10.50;99.90
29341;DHT22;16337;59.536;13.468;2022-09-28T18:02:56;10.50;99.90
29341;DHT22;16337;59.536;13.468;2022-09-28T18:05:24;10.60;99.90
29341;DHT22;16337;59.536;13.468;2022-09-28T18:07:51;10.50;99.90
29341;DHT22;16337;59.536;13.468;2022-09-28T18:10:19;10.50;99.90
29341;DHT22;16337;59.536;13.468;2022-09-28T18:12:46;10.50;99.90
29341;DHT22;16337;59.536;13.468;2022-09-28T18:15:12;10.50;99.90
29341;DHT22;16337;59.536;13.468;2022-09-28T18:17:38;10.50;99.90
29341;DHT22;16337;59.536;13.468;2022-09-28T18:20:06;10.50;99.90
29341;DHT22;16337;59.536;13.468;2022-09-28T18:22:32;10.40;99.90
29341;DHT22;16337;59.536;13.468;2022-09-28T18:24:58;10.30;99.90
29341;DHT22;16337;59.536;13.468;2022-09-28T18:27:24;10.30;99.90
29341;DHT22;16337;59.536;13.468;2022-09-28T18:29:50;10.20;99.90
29341;DHT22;16337;59.536;13.468;2022-09-28T18:32:15;10.20;99.90
29341;DHT22;16337;59.536;13.468;2022-09-28T18:34:41;10.10;99.90
29341;DHT22;16337;59.536;13.468;2022-09-28T18:37:07;10.10;99.90
29341;DHT22;16337;59.536;13.468;2022-09-28T18:39:34;10.20;99.90
29341;DHT22;16337;59.536;13.468;2022-09-28T18:42:00;10.20;99.90
29341;DHT22;16337;59.536;13.468;2022-09-28T18:44:27;10.20;99.90
29341;DHT22;16337;59.536;13.468;2022-09-28T18:46:52;10.10;99.90
29341;DHT22;16337;59.536;13.468;2022-09-28T18:49:19;10.10;99.90
29341;DHT22;16337;59.536;13.468;2022-09-28T18:51:45;10.00;99.90
29341;DHT22;16337;59.536;13.468;2022-09-28T18:54:11;10.10;99.90
29341;DHT22;16337;59.536;13.468;2022-09-28T18:56:36;10.10;99.90
29341;DHT22;16337;59.536;13.468;2022-09-28T18:59:06;10.10;99.90
29341;DHT22;16337;59.536;13.468;2022-09-28T19:01:33;10.10;99.90
29341;DHT22;16337;59.536;13.468;2022-09-28T19:04:00;10.00;99.90
29341;DHT22;16337;59.536;13.468;2022-09-28T19:06:26;10.00;99.90
29341;DHT22;16337;59.536;13.468;2022-09-28T19:08:53;9.90;99.90
29341;DHT22;16337;59.536;13.468;2022-09-28T19:11:23;9.90;99.90
29341;DHT22;16337;59.536;13.468;2022-09-28T19:13:49;9.80;99.90